Time;durP1;ratioP1;P1;durP2;ratioP2;P2;SDS_P1;SDS_P2;PMS_P1;PMS_P2;Temp;Humidity;BMP_temperature;BMP_pressure;BME280_temperature;BME280_humidity;BME280_pressure;Samples;Min_cycle;Max_cycle;Signal;HPM_P1;HPM_P2
2023/05/01 00:01:39;;;;;;;9.27;6.10;;;7.30;99.90;;;;;;5032867;28;20432;-62
2023/05/01 00:04:06;;;;;;;13.97;6.47;;;7.20;99.90;;;;;;5048038;28;20207;-63
2023/05/01 00:06:34;;;;;;;9.23;5.80;;;7.30;99.90;;;;;;5045766;28;20209;-63
2023/05/01 00:09:01;;;;;;;7.80;6.07;;;7.30;99.90;;;;;;5028542;28;20294;-62
2023/05/01 00:11:28;;;;;;;11.30;6.13;;;7.20;99.90;;;;;;5028284;28;20686;-62
2023/05/01 00:13:54;;;;;;;11.63;5.77;;;7.20;99.90;;;;;;5060365;28;20196;-62
2023/05/01 00:16:21;;;;;;;11.00;5.77;;;7.20;99.90;;;;;;5043089;28;20219;-62
2023/05/01 00:18:48;;;;;;;11.60;6.20;;;7.10;99.90;;;;;;5046842;28;20212;-62
2023/05/01 00:21:15;;;;;;;11.33;5.97;;;7.00;99.90;;;;;;5060129;28;20207;-62
2023/05/01 00:23:43;;;;;;;7.90;5.43;;;6.90;99.90;;;;;;5031514;28;20212;-62
2023/05/01 00:26:10;;;;;;;9.10;6.00;;;6.80;99.90;;;;;;5054010;28;20215;-62
2023/05/01 00:28:37;;;;;;;9.73;5.50;;;6.60;99.90;;;;;;5047100;28;20825;-62
2023/05/01 00:31:04;;;;;;;7.57;5.80;;;6.40;99.90;;;;;;5049391;28;20595;-62
2023/05/01 00:33:31;;;;;;;8.93;5.60;;;6.40;99.90;;;;;;5050232;28;20775;-62
2023/05/01 00:35:57;;;;;;;13.60;5.60;;;6.40;99.90;;;;;;5058611;28;20724;-62
2023/05/01 00:38:24;;;;;;;10.37;6.17;;;6.40;99.90;;;;;;5018136;28;20401;-63
2023/05/01 00:40:52;;;;;;;13.27;5.83;;;6.40;99.90;;;;;;5057630;28;20785;-62
2023/05/01 00:43:19;;;;;;;14.43;7.20;;;6.30;99.90;;;;;;5042119;28;20236;-62
2023/05/01 00:45:46;;;;;;;13.07;6.87;;;6.30;99.90;;;;;;5052548;28;20203;-63
2023/05/01 00:48:14;;;;;;;13.97;7.93;;;6.40;99.90;;;;;;5046606;28;20216;-62
2023/05/01 00:50:42;;;;;;;14.97;6.93;;;6.40;99.90;;;;;;5041900;28;22072;-62
2023/05/01 00:53:08;;;;;;;10.10;7.03;;;6.40;99.90;;;;;;5054894;28;20197;-62
2023/05/01 00:55:36;;;;;;;11.33;7.07;;;6.40;99.90;;;;;;5027152;28;20683;-62
2023/05/01 00:58:05;;;;;;;20.73;8.47;;;6.40;99.90;;;;;;5050146;28;20228;-62
2023/05/01 01:00:32;;;;;;;11.53;6.87;;;6.40;99.90;;;;;;5045754;28;20688;-62
2023/05/01 01:02:59;;;;;;;12.67;7.13;;;6.40;99.90;;;;;;5045476;28;20595;-62
2023/05/01 01:05:29;;;;;;;12.97;7.23;;;6.50;99.90;;;;;;5046597;28;20947;-63
2023/05/01 01:08:05;;;;;;;10.50;6.40;;;6.70;99.90;;;;;;5055150;28;20196;-62
2023/05/01 01:10:39;;;;;;;10.97;7.07;;;6.70;99.90;;;;;;5024634;28;20692;-62
2023/05/01 01:13:13;;;;;;;14.20;6.97;;;6.70;99.90;;;;;;5056183;28;20571;-62
2023/05/01 01:15:46;;;;;;;12.57;6.63;;;6.80;99.90;;;;;;5050347;28;20529;-62
2023/05/01 01:18:19;;;;;;;10.47;6.90;;;6.70;99.90;;;;;;5047732;28;20220;-62
2023/05/01 01:20:54;;;;;;;16.17;7.93;;;6.80;99.90;;;;;;5056232;28;20197;-62
2023/05/01 01:23:49;;;;;;;12.77;7.40;;;6.80;99.90;;;;;;5053276;28;20719;-62
2023/05/01 01:26:39;;;;;;;12.50;7.43;;;6.80;99.90;;;;;;5028450;28;20208;-62
2023/05/01 01:29:37;;;;;;;10.90;6.63;;;6.70;99.90;;;;;;5063575;28;20204;-63
2023/05/01 01:32:27;;;;;;;13.10;7.10;;;6.70;99.90;;;;;;5030107;28;20488;-62
2023/05/01 01:35:01;;;;;;;12.67;6.90;;;6.60;99.90;;;;;;5051310;28;21018;-62
2023/05/01 01:37:34;;;;;;;14.73;7.40;;;6.60;99.90;;;;;;5051280;28;21191;-63
2023/05/01 01:40:06;;;;;;;11.33;6.73;;;6.60;99.90;;;;;;5020853;28;20760;-63
2023/05/01 01:42:37;;;;;;;10.50;6.50;;;6.60;99.90;;;;;;5053676;28;20192;-62
2023/05/01 01:45:11;;;;;;;10.43;6.50;;;6.70;99.90;;;;;;5039588;28;20195;-62
2023/05/01 01:47:42;;;;;;;11.90;6.20;;;6.70;99.90;;;;;;5056078;28;20200;-62
2023/05/01 01:50:12;;;;;;;9.83;5.90;;;6.70;99.90;;;;;;5043923;28;20336;-62
2023/05/01 01:52:42;;;;;;;13.83;6.77;;;6.80;99.90;;;;;;5063974;28;20298;-62
2023/05/01 01:55:12;;;;;;;10.67;6.33;;;6.80;99.90;;;;;;5010472;28;20204;-62
2023/05/01 01:57:41;;;;;;;6.83;5.50;;;6.90;99.90;;;;;;5057507;28;20220;-63
2023/05/01 02:00:10;;;;;;;8.03;5.30;;;6.80;99.90;;;;;;5051527;28;20355;-62
2023/05/01 02:02:39;;;;;;;11.87;5.90;;;6.70;99.90;;;;;;5044226;28;20205;-63
2023/05/01 02:05:08;;;;;;;11.03;6.30;;;6.70;99.90;;;;;;5037448;28;20556;-63
2023/05/01 02:07:39;;;;;;;8.77;5.73;;;6.70;99.90;;;;;;5063581;28;20541;-62
2023/05/01 02:10:08;;;;;;;11.57;5.37;;;6.70;99.90;;;;;;5011681;28;21972;-63
2023/05/01 02:12:36;;;;;;;8.93;5.50;;;6.60;99.90;;;;;;5044104;28;20622;-63
2023/05/01 02:15:06;;;;;;;10.03;5.83;;;6.50;99.90;;;;;;5057657;28;20626;-62
2023/05/01 02:17:34;;;;;;;8.87;5.13;;;6.50;99.90;;;;;;5040452;28;20311;-62
2023/05/01 02:20:03;;;;;;;7.07;4.83;;;6.60;99.90;;;;;;5046845;28;20341;-62
2023/05/01 02:22:31;;;;;;;11.90;5.13;;;6.60;99.90;;;;;;5057761;28;20563;-63
2023/05/01 02:25:01;;;;;;;10.03;5.10;;;6.60;99.90;;;;;;5038359;28;20201;-62
2023/05/01 02:27:34;;;;;;;15.70;5.37;;;6.70;99.90;;;;;;5024895;28;20205;-63
2023/05/01 02:30:02;;;;;;;8.60;4.87;;;6.70;99.90;;;;;;5052474;28;20719;-62
2023/05/01 02:32:29;;;;;;;8.40;5.53;;;6.70;99.90;;;;;;5037419;28;20204;-62
2023/05/01 02:34:56;;;;;;;9.23;5.33;;;6.50;99.90;;;;;;5052685;28;20291;-63
2023/05/01 02:37:23;;;;;;;6.90;4.93;;;6.50;99.90;;;;;;5054819;28;20341;-63
2023/05/01 02:39:50;;;;;;;7.30;4.67;;;6.40;99.90;;;;;;5056399;28;20243;-62
2023/05/01 02:42:21;;;;;;;10.97;4.60;;;6.50;99.90;;;;;;5011418;28;20443;-62
2023/05/01 02:44:55;;;;;;;7.97;4.57;;;6.50;99.90;;;;;;5052038;28;21370;-62
2023/05/01 02:47:23;;;;;;;9.47;5.07;;;6.50;99.90;;;;;;5052743;28;20766;-62
2023/05/01 02:49:52;;;;;;;8.57;4.80;;;6.60;99.90;;;;;;5040936;28;20354;-63
2023/05/01 02:52:20;;;;;;;4.93;4.20;;;6.60;99.90;;;;;;5042325;28;20433;-62
2023/05/01 02:54:47;;;;;;;9.00;4.93;;;6.60;99.90;;;;;;5055047;28;20266;-62
2023/05/01 02:57:16;;;;;;;8.87;4.80;;;6.70;99.90;;;;;;5005914;28;20325;-63
2023/05/01 02:59:44;;;;;;;6.27;3.97;;;6.70;99.90;;;;;;5059005;28;20287;-62
2023/05/01 03:02:11;;;;;;;10.67;4.70;;;6.70;99.90;;;;;;5051603;28;20295;-63
2023/05/01 03:04:38;;;;;;;9.47;4.20;;;6.80;99.90;;;;;;5044873;28;20207;-62
2023/05/01 03:07:05;;;;;;;8.57;4.47;;;6.70;99.90;;;;;;5025862;28;20696;-62
2023/05/01 03:09:32;;;;;;;9.33;4.63;;;6.80;99.90;;;;;;5055586;28;20249;-62
2023/05/01 03:11:59;;;;;;;5.40;4.00;;;6.80;99.90;;;;;;5016356;28;20682;-63
2023/05/01 03:14:27;;;;;;;10.20;4.67;;;6.80;99.90;;;;;;5055668;28;20215;-62
2023/05/01 03:16:55;;;;;;;5.50;4.20;;;6.80;99.90;;;;;;5056052;28;20200;-62
2023/05/01 03:19:22;;;;;;;8.67;4.33;;;6.80;99.90;;;;;;5042294;28;20496;-62
2023/05/01 03:21:49;;;;;;;6.83;3.93;;;6.80;99.90;;;;;;5048789;28;20306;-63
2023/05/01 03:24:16;;;;;;;7.23;3.70;;;6.70;99.90;;;;;;5040895;28;20282;-62
2023/05/01 03:26:43;;;;;;;5.07;4.03;;;6.80;99.90;;;;;;5049262;28;20247;-62
2023/05/01 03:29:12;;;;;;;9.83;3.90;;;6.80;99.90;;;;;;5014634;28;20307;-62
2023/05/01 03:31:38;;;;;;;8.60;4.00;;;6.80;99.90;;;;;;5054078;28;20227;-63
2023/05/01 03:34:07;;;;;;;8.27;3.87;;;6.70;99.90;;;;;;5036296;28;20389;-63
2023/05/01 03:36:34;;;;;;;6.63;4.03;;;6.60;99.90;;;;;;5059840;28;20192;-62
2023/05/01 03:39:00;;;;;;;8.87;3.53;;;6.70;99.90;;;;;;5048264;28;20232;-62
2023/05/01 03:41:27;;;;;;;6.10;3.47;;;6.70;99.90;;;;;;5045553;28;20243;-62
2023/05/01 03:43:54;;;;;;;9.67;4.20;;;6.80;99.90;;;;;;5029194;28;20358;-63
2023/05/01 03:46:21;;;;;;;4.93;3.33;;;6.80;99.90;;;;;;5046825;28;21022;-62
2023/05/01 03:48:48;;;;;;;8.23;3.43;;;6.80;99.90;;;;;;5057411;28;20222;-62
2023/05/01 03:51:16;;;;;;;5.57;3.73;;;6.70;99.90;;;;;;5043603;28;20285;-62
2023/05/01 03:53:43;;;;;;;7.83;3.47;;;6.70;99.90;;;;;;5049023;28;20207;-62
2023/05/01 03:56:10;;;;;;;8.10;4.80;;;6.80;99.90;;;;;;5046516;28;20602;-62
2023/05/01 03:58:37;;;;;;;5.60;3.10;;;6.80;99.90;;;;;;5033406;28;21378;-62
2023/05/01 04:01:04;;;;;;;8.10;3.90;;;6.80;99.90;;;;;;5021368;28;20285;-62
2023/05/01 04:03:31;;;;;;;9.57;4.00;;;6.80;99.90;;;;;;5013737;28;20678;-62
2023/05/01 04:05:58;;;;;;;5.27;3.43;;;6.70;99.90;;;;;;5034158;28;20745;-62
2023/05/01 04:08:26;;;;;;;7.17;3.73;;;6.80;99.90;;;;;;5029236;28;20501;-62
2023/05/01 04:10:53;;;;;;;18.37;3.23;;;6.70;99.90;;;;;;5052699;28;20661;-63
2023/05/01 04:13:20;;;;;;;7.07;3.53;;;6.80;99.90;;;;;;5038378;28;20353;-62
2023/05/01 04:15:47;;;;;;;7.77;3.50;;;6.70;99.90;;;;;;5012623;28;20817;-63
2023/05/01 04:18:14;;;;;;;5.37;3.40;;;6.70;99.90;;;;;;5039181;28;21089;-62
2023/05/01 04:20:41;;;;;;;6.80;3.23;;;6.70;99.90;;;;;;5033840;28;20450;-62
2023/05/01 04:23:08;;;;;;;6.43;3.53;;;6.60;99.90;;;;;;5040110;28;20591;-62
2023/05/01 04:25:36;;;;;;;8.70;4.20;;;6.70;99.90;;;;;;5042840;28;20615;-62
2023/05/01 04:28:03;;;;;;;5.37;3.30;;;6.70;99.90;;;;;;5045307;28;20294;-63
2023/05/01 04:30:30;;;;;;;5.33;3.20;;;6.70;99.90;;;;;;5011800;28;20521;-62
2023/05/01 04:32:58;;;;;;;6.90;3.67;;;6.70;99.90;;;;;;5055537;28;20525;-63
2023/05/01 04:35:25;;;;;;;7.60;3.87;;;6.60;99.90;;;;;;5032904;28;20204;-62
2023/05/01 04:37:52;;;;;;;4.97;3.43;;;6.60;99.90;;;;;;5040776;28;20227;-62
2023/05/01 04:40:19;;;;;;;4.50;3.30;;;6.60;99.90;;;;;;5048089;28;20315;-63
2023/05/01 04:42:48;;;;;;;7.40;3.53;;;6.60;99.90;;;;;;5041011;28;20281;-63
2023/05/01 04:45:15;;;;;;;7.00;3.40;;;6.70;99.90;;;;;;5030822;28;20303;-63
2023/05/01 04:47:42;;;;;;;6.70;3.90;;;6.60;99.90;;;;;;5038194;28;20493;-62
2023/05/01 04:50:10;;;;;;;5.60;3.33;;;6.60;99.90;;;;;;5038054;28;20262;-62
2023/05/01 04:52:37;;;;;;;5.27;3.37;;;6.60;99.90;;;;;;5040617;28;20204;-62
2023/05/01 04:55:04;;;;;;;7.30;3.80;;;6.60;99.90;;;;;;5043089;28;20212;-62
2023/05/01 04:57:31;;;;;;;5.87;3.40;;;6.60;99.90;;;;;;5054228;28;20560;-62
2023/05/01 04:59:59;;;;;;;4.70;3.17;;;6.70;99.90;;;;;;5036776;28;20682;-62
2023/05/01 05:02:26;;;;;;;8.37;3.97;;;6.70;99.90;;;;;;4994264;28;20273;-62
2023/05/01 05:04:53;;;;;;;5.47;3.87;;;6.70;99.90;;;;;;5042784;28;20353;-62
2023/05/01 05:07:20;;;;;;;8.27;3.83;;;6.80;99.90;;;;;;5014490;28;20990;-62
2023/05/01 05:09:47;;;;;;;9.13;3.83;;;6.80;99.90;;;;;;5037318;28;20295;-62
2023/05/01 05:12:14;;;;;;;6.93;3.83;;;6.80;99.90;;;;;;5036321;28;20323;-62
2023/05/01 05:14:41;;;;;;;9.53;3.90;;;6.80;99.90;;;;;;5047851;28;20201;-62
2023/05/01 05:17:09;;;;;;;9.87;4.10;;;6.90;99.90;;;;;;5010571;28;21106;-63
2023/05/01 05:19:36;;;;;;;7.40;3.70;;;6.90;99.90;;;;;;5051650;28;20338;-62
2023/05/01 05:22:03;;;;;;;7.30;3.93;;;6.90;99.90;;;;;;5036693;28;20358;-63
2023/05/01 05:24:31;;;;;;;10.00;4.33;;;7.00;99.90;;;;;;5047843;28;20216;-63
2023/05/01 05:26:58;;;;;;;9.37;4.30;;;7.00;99.90;;;;;;5060571;28;20216;-63
2023/05/01 05:29:25;;;;;;;8.37;4.10;;;7.10;99.90;;;;;;5053137;28;20718;-62
2023/05/01 05:31:52;;;;;;;7.13;3.77;;;7.10;99.90;;;;;;5026286;28;20284;-63
2023/05/01 05:34:20;;;;;;;4.57;3.23;;;7.10;99.90;;;;;;5035846;28;20520;-62
2023/05/01 05:36:47;;;;;;;10.10;3.90;;;7.20;99.90;;;;;;5053816;28;20291;-62
2023/05/01 05:39:14;;;;;;;9.73;3.90;;;7.20;99.90;;;;;;5010543;28;20622;-63
2023/05/01 05:41:41;;;;;;;7.27;3.30;;;7.30;99.90;;;;;;5044735;28;20250;-62
2023/05/01 05:44:08;;;;;;;7.93;3.97;;;7.40;99.90;;;;;;5051261;28;20366;-62
2023/05/01 05:46:34;;;;;;;6.17;3.53;;;7.50;99.90;;;;;;5045971;28;20650;-63
2023/05/01 05:49:01;;;;;;;7.43;4.10;;;7.50;99.90;;;;;;5018993;28;20428;-62
2023/05/01 05:51:30;;;;;;;8.00;3.87;;;7.60;99.90;;;;;;5051111;28;20339;-62
2023/05/01 05:53:57;;;;;;;5.30;3.47;;;7.70;99.90;;;;;;5028435;28;20201;-62
2023/05/01 05:56:24;;;;;;;5.83;3.77;;;7.80;99.90;;;;;;5044302;28;20299;-63
2023/05/01 05:58:51;;;;;;;8.23;3.83;;;7.90;99.90;;;;;;5046357;28;20232;-63
2023/05/01 06:01:17;;;;;;;5.57;3.90;;;8.00;99.90;;;;;;5035275;28;20554;-63
2023/05/01 06:03:44;;;;;;;9.03;3.77;;;8.10;99.90;;;;;;5056599;28;20282;-62
2023/05/01 06:06:11;;;;;;;9.27;3.83;;;8.10;99.90;;;;;;5027861;28;20509;-63
2023/05/01 06:08:40;;;;;;;6.80;3.87;;;8.20;99.90;;;;;;5006524;28;20216;-63
2023/05/01 06:11:09;;;;;;;7.27;3.60;;;8.30;99.90;;;;;;5042891;28;20689;-62
2023/05/01 06:13:35;;;;;;;8.83;3.60;;;8.40;99.90;;;;;;5035381;28;20311;-63
2023/05/01 06:16:02;;;;;;;7.37;3.37;;;8.50;99.90;;;;;;5055247;28;20315;-62
2023/05/01 06:18:30;;;;;;;10.20;5.17;;;8.60;99.90;;;;;;5038167;28;20348;-63
2023/05/01 06:20:57;;;;;;;5.47;3.33;;;8.70;99.90;;;;;;5024515;28;20212;-62
2023/05/01 06:23:24;;;;;;;8.87;3.83;;;8.70;99.90;;;;;;5046886;28;20201;-62
2023/05/01 06:25:52;;;;;;;4.47;2.87;;;8.70;99.90;;;;;;5031648;28;20474;-63
2023/05/01 06:28:20;;;;;;;8.23;3.30;;;8.80;99.90;;;;;;5040132;28;20208;-62
2023/05/01 06:30:47;;;;;;;8.10;3.87;;;8.90;99.90;;;;;;5033743;28;20221;-63
2023/05/01 06:33:14;;;;;;;6.65;3.75;;;8.90;99.90;;;;;;5047792;28;20907;-63
2023/05/01 06:35:40;;;;;;;7.07;3.73;;;8.90;99.90;;;;;;5024220;28;21020;-63
2023/05/01 06:38:07;;;;;;;9.75;4.20;;;9.00;99.90;;;;;;5060605;28;20381;-63
2023/05/01 06:40:34;;;;;;;7.30;3.97;;;9.00;99.90;;;;;;5030511;28;20281;-63
2023/05/01 06:43:03;;;;;;;8.73;3.65;;;9.10;99.90;;;;;;5048570;28;20313;-62
2023/05/01 06:45:30;;;;;;;6.25;3.90;;;9.10;99.90;;;;;;5057093;28;20658;-63
2023/05/01 06:47:57;;;;;;;8.32;4.05;;;9.20;99.90;;;;;;5043946;28;20263;-62
2023/05/01 06:50:24;;;;;;;12.07;3.87;;;9.30;99.90;;;;;;5044953;28;21176;-64
2023/05/01 06:52:51;;;;;;;6.60;3.90;;;9.30;99.90;;;;;;5012654;28;20217;-62
2023/05/01 06:55:18;;;;;;;9.70;4.53;;;9.40;99.90;;;;;;5035546;28;20623;-62
2023/05/01 06:57:45;;;;;;;9.07;4.05;;;9.50;99.90;;;;;;5034353;28;20295;-62
2023/05/01 07:00:16;;;;;;;8.45;4.35;;;9.60;99.90;;;;;;5047618;28;20319;-63
2023/05/01 07:02:44;;;;;;;9.23;4.15;;;9.60;99.90;;;;;;5030842;28;20575;-62
2023/05/01 07:05:12;;;;;;;9.23;3.72;;;9.70;99.90;;;;;;5027565;28;20224;-62
2023/05/01 07:07:39;;;;;;;7.80;4.18;;;9.70;99.90;;;;;;5014336;28;20331;-62
2023/05/01 07:10:07;;;;;;;14.65;4.10;;;9.80;99.90;;;;;;5035844;28;20235;-63
2023/05/01 07:12:34;;;;;;;8.27;4.15;;;9.90;99.90;;;;;;5045034;28;20306;-62
2023/05/01 07:15:01;;;;;;;7.63;3.75;;;9.90;99.90;;;;;;5031802;28;20318;-62
2023/05/01 07:17:29;;;;;;;5.97;3.38;;;10.10;99.90;;;;;;5049278;28;20212;-62
2023/05/01 07:19:56;;;;;;;6.10;3.53;;;10.10;99.90;;;;;;5027196;28;20235;-63
2023/05/01 07:22:23;;;;;;;6.50;3.67;;;10.20;99.90;;;;;;5023201;28;20318;-63
2023/05/01 07:24:49;;;;;;;6.55;3.13;;;10.20;99.90;;;;;;5012840;28;20270;-62
2023/05/01 07:27:16;;;;;;;6.15;3.42;;;10.30;99.90;;;;;;5011165;28;20277;-62
2023/05/01 07:29:43;;;;;;;8.13;3.60;;;10.40;99.90;;;;;;5023628;28;20634;-63
2023/05/01 07:32:10;;;;;;;7.70;2.95;;;10.40;99.90;;;;;;5040573;28;20928;-62
2023/05/01 07:34:38;;;;;;;5.35;3.33;;;10.50;99.90;;;;;;5048510;28;20281;-62
2023/05/01 07:37:05;;;;;;;6.72;3.25;;;10.50;99.90;;;;;;5033515;28;20461;-62
2023/05/01 07:39:32;;;;;;;7.30;3.15;;;10.60;99.90;;;;;;5012684;28;20641;-62
2023/05/01 07:41:59;;;;;;;7.50;3.58;;;10.70;99.90;;;;;;5040718;28;20536;-62
2023/05/01 07:44:26;;;;;;;5.25;3.38;;;10.70;99.90;;;;;;5043159;28;20351;-61
2023/05/01 07:46:52;;;;;;;11.88;3.88;;;10.80;99.90;;;;;;5025009;28;20504;-63
2023/05/01 07:49:19;;;;;;;7.55;3.50;;;10.90;99.90;;;;;;5055574;28;20307;-63
2023/05/01 07:51:48;;;;;;;9.40;3.90;;;10.90;99.90;;;;;;5032527;28;20300;-63
2023/05/01 07:54:15;;;;;;;13.23;3.45;;;10.90;99.90;;;;;;5015522;28;20445;-63
2023/05/01 07:56:42;;;;;;;6.20;3.47;;;11.00;99.90;;;;;;5019364;28;20291;-63
2023/05/01 07:59:09;;;;;;;9.80;3.42;;;11.10;99.90;;;;;;5004034;28;20235;-62
2023/05/01 08:01:36;;;;;;;7.07;3.28;;;11.10;99.90;;;;;;5010465;28;20362;-62
2023/05/01 08:04:03;;;;;;;6.15;3.50;;;11.20;99.90;;;;;;5043304;28;20391;-62
2023/05/01 08:06:30;;;;;;;7.25;3.30;;;11.30;99.90;;;;;;5046872;28;20304;-62
2023/05/01 08:08:59;;;;;;;5.30;2.83;;;11.30;99.90;;;;;;5025876;28;20732;-62
2023/05/01 08:11:28;;;;;;;6.53;2.95;;;11.40;99.90;;;;;;5015618;28;20554;-62
2023/05/01 08:13:55;;;;;;;7.28;2.95;;;11.50;99.90;;;;;;5014921;28;20373;-62
2023/05/01 08:16:21;;;;;;;4.68;2.78;;;11.50;99.90;;;;;;5019606;28;20749;-62
2023/05/01 08:18:48;;;;;;;7.53;3.38;;;11.60;99.90;;;;;;5028034;28;20802;-62
2023/05/01 08:21:15;;;;;;;3.88;2.70;;;11.60;99.90;;;;;;5050274;28;20366;-62
2023/05/01 08:23:42;;;;;;;3.88;2.80;;;11.60;99.90;;;;;;5011847;28;20328;-63
2023/05/01 08:26:10;;;;;;;7.38;2.97;;;11.60;99.90;;;;;;4996517;28;20887;-62
2023/05/01 08:28:37;;;;;;;6.25;3.08;;;11.70;99.90;;;;;;5043625;28;20291;-62
2023/05/01 08:31:04;;;;;;;7.75;2.60;;;11.80;99.90;;;;;;5041810;28;20854;-62
2023/05/01 08:33:31;;;;;;;3.88;2.33;;;11.90;99.90;;;;;;5044241;28;20201;-63
2023/05/01 08:35:58;;;;;;;4.57;2.60;;;12.00;99.90;;;;;;5037588;28;20231;-62
2023/05/01 08:38:25;;;;;;;9.10;3.45;;;12.00;99.90;;;;;;5033374;28;20288;-63
2023/05/01 08:40:55;;;;;;;6.82;3.40;;;12.10;99.90;;;;;;5016420;28;20281;-63
2023/05/01 08:43:25;;;;;;;5.03;3.30;;;12.20;99.90;;;;;;5009401;28;20712;-62
2023/05/01 08:45:56;;;;;;;6.93;3.22;;;12.30;99.90;;;;;;5042234;28;20287;-63
2023/05/01 08:48:24;;;;;;;7.35;3.70;;;12.30;99.90;;;;;;5045162;28;20440;-63
2023/05/01 08:50:55;;;;;;;6.78;3.80;;;12.50;99.90;;;;;;5038788;28;20455;-63
2023/05/01 08:53:23;;;;;;;10.25;3.63;;;12.60;99.90;;;;;;5047685;28;20656;-63
2023/05/01 08:55:51;;;;;;;7.15;3.60;;;12.60;99.90;;;;;;5042571;28;20666;-63
2023/05/01 08:58:19;;;;;;;7.65;3.28;;;12.70;99.90;;;;;;5014452;28;20389;-63
2023/05/01 09:00:48;;;;;;;4.90;3.03;;;12.80;99.90;;;;;;5026101;28;20236;-63
2023/05/01 09:03:16;;;;;;;7.25;2.72;;;12.90;99.90;;;;;;5028240;28;20225;-63
2023/05/01 09:05:43;;;;;;;4.57;2.83;;;12.90;99.90;;;;;;5049016;28;21164;-63
2023/05/01 09:08:10;;;;;;;5.32;2.65;;;12.90;99.90;;;;;;5053333;28;20694;-62
2023/05/01 09:10:42;;;;;;;3.63;2.30;;;13.00;99.90;;;;;;5038475;28;20441;-63
2023/05/01 09:13:10;;;;;;;8.82;2.78;;;13.00;99.90;;;;;;5008431;28;20216;-63
2023/05/01 09:15:36;;;;;;;7.75;3.30;;;13.10;99.90;;;;;;5026350;28;20270;-63
2023/05/01 09:18:05;;;;;;;5.53;3.20;;;13.40;99.90;;;;;;5035875;28;20519;-63
2023/05/01 09:20:32;;;;;;;10.05;2.90;;;13.30;99.90;;;;;;5025993;28;20641;-63
2023/05/01 09:22:59;;;;;;;4.70;2.63;;;13.40;99.90;;;;;;5010008;28;20858;-63
2023/05/01 09:25:26;;;;;;;4.00;2.70;;;13.50;99.90;;;;;;5020440;28;20188;-63
2023/05/01 09:27:53;;;;;;;10.30;3.42;;;13.60;99.90;;;;;;5025551;28;20612;-63
2023/05/01 09:30:33;;;;;;;2.90;2.60;;;13.60;99.90;;;;;;5009722;28;20204;-63
2023/05/01 09:33:09;;;;;;;3.67;2.72;;;13.70;99.90;;;;;;5009898;28;20228;-63
2023/05/01 09:35:50;;;;;;;3.35;2.50;;;13.70;99.90;;;;;;4988497;28;20280;-63
2023/05/01 09:38:18;;;;;;;10.32;3.05;;;13.90;99.90;;;;;;5044464;28;20303;-63
2023/05/01 09:40:45;;;;;;;7.18;2.92;;;13.90;99.90;;;;;;5034950;28;20401;-63
2023/05/01 09:43:12;;;;;;;5.13;2.97;;;14.00;99.90;;;;;;5025345;28;20248;-63
2023/05/01 09:45:41;;;;;;;5.00;2.58;;;14.00;99.90;;;;;;4992939;28;20311;-63
2023/05/01 09:48:11;;;;;;;6.50;2.45;;;14.00;99.90;;;;;;5030163;28;20230;-63
2023/05/01 09:50:40;;;;;;;3.15;2.28;;;14.10;99.90;;;;;;5019784;28;20219;-63
2023/05/01 09:53:07;;;;;;;6.35;2.47;;;14.10;99.90;;;;;;5047884;28;20224;-64
2023/05/01 09:55:34;;;;;;;3.38;2.58;;;14.30;99.90;;;;;;5029425;28;20346;-64
2023/05/01 09:58:02;;;;;;;6.32;2.47;;;14.30;99.90;;;;;;5019052;28;20261;-63
2023/05/01 10:00:29;;;;;;;5.10;1.88;;;14.30;99.90;;;;;;5017743;28;21924;-64
2023/05/01 10:02:56;;;;;;;6.88;2.03;;;14.40;99.90;;;;;;5044946;28;20307;-64
2023/05/01 10:05:25;;;;;;;2.28;1.70;;;14.50;99.90;;;;;;5029799;28;20449;-63
2023/05/01 10:08:00;;;;;;;4.45;2.58;;;14.50;99.90;;;;;;5046797;28;20363;-63
2023/05/01 10:10:28;;;;;;;6.18;1.83;;;14.50;99.90;;;;;;5037189;28;20214;-64
2023/05/01 10:12:54;;;;;;;4.78;1.70;;;14.60;99.90;;;;;;5026224;28;20235;-64
2023/05/01 10:15:22;;;;;;;5.22;1.90;;;14.70;99.90;;;;;;5039526;28;20365;-63
2023/05/01 10:17:51;;;;;;;5.38;2.55;;;14.70;99.90;;;;;;5013449;28;20401;-64
2023/05/01 10:20:18;;;;;;;3.42;2.17;;;14.80;99.90;;;;;;5030100;28;20617;-63
2023/05/01 10:22:47;;;;;;;3.90;2.03;;;14.90;99.90;;;;;;5021913;28;20212;-64
2023/05/01 10:25:14;;;;;;;6.10;2.15;;;14.90;99.90;;;;;;5038005;28;20422;-64
2023/05/01 10:27:41;;;;;;;6.03;2.00;;;14.90;99.90;;;;;;5025401;28;20220;-64
2023/05/01 10:30:10;;;;;;;4.93;2.00;;;15.00;99.90;;;;;;5034847;28;20847;-63
2023/05/01 10:32:38;;;;;;;2.83;2.00;;;15.20;99.90;;;;;;5007059;28;20244;-63
2023/05/01 10:35:10;;;;;;;5.53;2.25;;;15.10;99.90;;;;;;5023867;28;20804;-63
2023/05/01 10:37:44;;;;;;;5.20;1.90;;;15.10;99.90;;;;;;5029584;28;20695;-62
2023/05/01 10:40:46;;;;;;;4.43;2.15;;;15.10;99.90;;;;;;5039427;28;20326;-63
2023/05/01 10:43:14;;;;;;;6.90;1.95;;;15.10;99.90;;;;;;5030532;28;20746;-63
2023/05/01 10:45:41;;;;;;;3.20;1.90;;;15.20;99.90;;;;;;5052011;28;20782;-63
2023/05/01 10:48:08;;;;;;;3.42;2.00;;;15.30;99.90;;;;;;5009584;28;20451;-64
2023/05/01 10:50:35;;;;;;;11.23;2.70;;;15.30;99.90;;;;;;5034998;28;20299;-63
2023/05/01 10:53:17;;;;;;;3.85;2.10;;;15.30;99.90;;;;;;5036910;28;20598;-63
2023/05/01 10:55:47;;;;;;;4.85;1.90;;;15.40;99.90;;;;;;5046513;28;20220;-63
2023/05/01 10:58:54;;;;;;;6.00;2.03;;;15.40;99.90;;;;;;5041677;28;20691;-63
2023/05/01 11:01:32;;;;;;;3.47;1.98;;;15.40;99.90;;;;;;5038044;28;20346;-63
2023/05/01 11:04:00;;;;;;;7.15;2.00;;;15.50;99.90;;;;;;4998239;28;20225;-63
2023/05/01 11:06:27;;;;;;;2.80;2.17;;;15.60;99.90;;;;;;5008888;28;20908;-63
2023/05/01 11:08:54;;;;;;;8.55;2.60;;;15.60;99.90;;;;;;5055885;28;20208;-63
2023/05/01 11:11:49;;;;;;;11.55;2.08;;;15.70;99.90;;;;;;5046646;28;20224;-63
2023/05/01 11:14:16;;;;;;;3.20;1.80;;;15.70;99.90;;;;;;5026388;28;20280;-63
2023/05/01 11:16:47;;;;;;;4.50;2.08;;;15.70;99.90;;;;;;5015275;28;20223;-63
2023/05/01 11:19:55;;;;;;;7.47;2.80;;;15.70;99.90;;;;;;5016597;28;20221;-64
2023/05/01 11:22:22;;;;;;;2.80;1.80;;;15.70;99.90;;;;;;4958245;28;20274;-63
2023/05/01 11:24:49;;;;;;;5.93;2.17;;;15.60;99.90;;;;;;5031107;28;24096;-63
2023/05/01 11:27:17;;;;;;;3.38;2.10;;;15.60;99.90;;;;;;5030888;28;20290;-63
2023/05/01 11:29:48;;;;;;;7.10;2.17;;;15.70;99.90;;;;;;5030688;28;20325;-63
2023/05/01 11:32:26;;;;;;;2.75;1.80;;;15.80;99.90;;;;;;4989451;28;20718;-64
2023/05/01 11:34:54;;;;;;;7.53;2.30;;;15.80;99.90;;;;;;5043258;28;20589;-63
2023/05/01 11:37:39;;;;;;;3.78;2.20;;;15.90;99.90;;;;;;4968047;28;20455;-63
2023/05/01 11:40:20;;;;;;;3.58;2.38;;;15.90;99.90;;;;;;5017621;28;20393;-63
2023/05/01 11:42:48;;;;;;;3.33;2.30;;;15.90;99.90;;;;;;5034254;28;20207;-64
2023/05/01 11:45:15;;;;;;;4.47;2.22;;;15.80;99.90;;;;;;5032008;28;20307;-64
2023/05/01 11:47:42;;;;;;;3.42;1.60;;;15.90;99.90;;;;;;5026375;28;20339;-63
2023/05/01 11:50:11;;;;;;;2.25;2.05;;;15.90;99.90;;;;;;5023074;28;20736;-64
2023/05/01 11:52:48;;;;;;;4.32;1.85;;;15.80;99.90;;;;;;5020542;28;20429;-63
2023/05/01 11:55:15;;;;;;;6.50;2.47;;;15.80;99.90;;;;;;5042900;28;20645;-63
2023/05/01 11:57:50;;;;;;;8.45;1.77;;;16.00;99.90;;;;;;5022685;28;20271;-64
2023/05/01 12:00:26;;;;;;;3.50;2.10;;;16.10;99.90;;;;;;5034892;28;20325;-63
2023/05/01 12:03:01;;;;;;;4.88;2.10;;;16.10;99.90;;;;;;5049230;28;20287;-63
2023/05/01 12:05:29;;;;;;;5.90;2.50;;;16.10;99.90;;;;;;5043175;28;20505;-63
2023/05/01 12:08:13;;;;;;;3.90;1.92;;;16.10;99.90;;;;;;4998602;28;20224;-63
2023/05/01 12:10:42;;;;;;;2.80;1.65;;;16.20;99.90;;;;;;5046042;28;20384;-63
2023/05/01 12:13:12;;;;;;;9.10;2.45;;;16.20;99.90;;;;;;5040912;28;20752;-63
2023/05/01 12:15:41;;;;;;;5.28;2.22;;;16.30;99.90;;;;;;5010241;28;20242;-63
2023/05/01 12:18:08;;;;;;;5.45;2.20;;;16.30;99.90;;;;;;5017602;28;20213;-63
2023/05/01 12:20:39;;;;;;;2.67;2.20;;;16.30;99.90;;;;;;5019069;28;20791;-63
2023/05/01 12:23:09;;;;;;;5.30;1.80;;;16.40;99.90;;;;;;4985519;28;20704;-64
2023/05/01 12:25:38;;;;;;;4.40;1.70;;;16.40;99.90;;;;;;5021858;28;20224;-63
2023/05/01 12:28:11;;;;;;;3.80;1.70;;;16.40;99.90;;;;;;5030507;28;20220;-64
2023/05/01 12:30:38;;;;;;;4.30;1.60;;;16.30;99.90;;;;;;5042104;28;20721;-63
2023/05/01 12:33:12;;;;;;;4.28;1.90;;;16.50;99.90;;;;;;5036757;28;20248;-63
2023/05/01 12:35:39;;;;;;;4.10;1.90;;;16.60;99.90;;;;;;5038022;28;20696;-64
2023/05/01 12:38:11;;;;;;;4.03;2.22;;;16.60;99.90;;;;;;5009549;28;20230;-64
2023/05/01 12:40:38;;;;;;;7.30;2.20;;;16.70;99.90;;;;;;5032242;28;20232;-63
2023/05/01 12:43:06;;;;;;;5.10;2.00;;;16.60;99.90;;;;;;5049189;28;20436;-63
2023/05/01 12:45:40;;;;;;;4.07;2.08;;;16.60;99.90;;;;;;5034021;28;20196;-63
2023/05/01 12:48:12;;;;;;;4.50;1.73;;;16.60;99.90;;;;;;5029486;28;20218;-63
2023/05/01 12:50:39;;;;;;;4.65;2.22;;;16.60;99.90;;;;;;5025693;28;20212;-63
2023/05/01 12:53:08;;;;;;;3.58;2.03;;;16.60;99.90;;;;;;5043115;28;20566;-64
2023/05/01 12:55:46;;;;;;;4.38;2.40;;;16.60;99.90;;;;;;4995495;28;20225;-64
2023/05/01 12:58:13;;;;;;;8.55;2.30;;;16.70;99.90;;;;;;5040530;28;20232;-64
2023/05/01 13:00:50;;;;;;;4.18;1.85;;;16.70;99.90;;;;;;5040051;28;20465;-63